Aspen-Pitkin Co/Sardy Field
KASE : rendu visible

Aérodrome :











RETROUVEZ-NOUS SUR...

 
LOGIN :

S'inscrire | Disclaimer

   EN    FR    IT 

 









Légende :    VFR   VFR Marginal   IFR   IFR Intensif   IFR Très Intensif
Visi : 
Plafond : 
>= 8 km
>= 3000ft
5 à 8 km
1000 à 3000 ft
1500m à 5 km
500 à 1000 ft
800 à 1500m
200 à 500 ft
< 800m
< 200 ft
Symboles :   Orages  Brouillard  Fortes neiges  Fortes précipitations  Vent > 20 kt






- Altitude de l'aérodrome : 7820 ft


KASE - Aspen-Pitkin Co/Sardy Field

DERNIER METAR :
  • 271253Z 00000KT 10SM CLR 09/02 A3027 RMK AO2 SLP141 T00940017

METARs EXPIRÉS :
  • 271153Z AUTO 20004KT 10SM CLR 07/01 A3025 RMK AO2 SLP142 T00670011 10128 20056 53000
  • 271053Z AUTO 23003KT 10SM SCT065 06/01 A3024 RMK AO2 SLP140 T00610011

TAF KASE
Valide du 27 à 12h jusqu'au 28 à 12h UTC


271127Z 2712/2812 23003KT P6SM SCT070
FM271800 35007KT P6SM SCT100
FM272200 32008KT P6SM VCTS FEW060 BKN100CB
FM280200 07005KT P6SM SCT100
FM281000 15005KT P6SM FEW200
FIR KZDV / Amérique du Nord



MET'MAP, la Météo Aéronautique d'un coup d'oeil ! - Copyright ORBIFLY Décembre 2007 - Disclaimer

ORBIFLY MET'MAP TEAM :

Programmation & Développement : Alexandra Zaïnal
Sur une idée originale de : Baudouin d'Aumeries
Assistance à la programmation : Marc-Olivier Méhu
Soutien technique & logistique : Manuel Goepfert

Contact : metmap@orbifly.com




SOURCES & CREDITS :

   NOAA       Earth
Advisory